Avon, Illinois
Current Conditions -  °F | °C
As of 7:15 PM on Saturday 22 Nov 2014 (Local Time) from KMQB Reporting Station
Broken Clouds Broken Clouds  
Wind Chill: 52°   Ceiling: 10000
Heat Index: 52°   Visibility: 10mi
Dew Point: 47°   Wind: 13mph
Humidity: 83%   Direction: 170°S
Pressure: 29.86"   Gusts: NA
Location:  40.66°N, 90.43°W
Report Text: KMQB 230115Z AUTO 17011KT 10SM SCT055 BKN100 11/08 A2986 RMK AO2 T01100083
Loading
Personal Weather Stations






























Interactive Weather Map New forecast layout! Learn more

10-Day Weather Forecast

Advertisements
Track Severe Weather on mobile